Avon, MN (56310)

10:18 AM CDT on August 20, 2014 (GMT -0500)
Saint Johns University Campus | Change Station
CLOSE
Current Station
Personal Weather Station
Location: Collegeville, MN
Elevation: 1200 ft
Nearby Weather Stations

Elev 1200 ft 45.58 °N, 94.39 °W | Updated 43 seconds ago

Clear
Clear
71.2 °F
Feels Like 71.2 °F
N
0.8
Wind Variable Wind from ENE
Gusts 3.0 mph

Today
High -- | Low -- °F
--% Chance of Precip.
Yesterday
High -- | Low -- °F
Precip. -- in
6:24 AM 8:17 PM
Waning Crescent, 21% visible
Pressure 29.88 in
Visibility 10.0 miles
Clouds Clear
Dew Point 67 °F
Humidity 87%
Rainfall 0.00 in
Snow Depth Not available.
UV 3.1 out of 12
Pollen 9.80 out of 12
Air Quality Not available.
Flu Activity Not available.
METAR KSTC 201453Z VRB04KT 10SM CLR 22/18 A2986 RMK AO2 SLP116 T02220178 58002

More Conditions Fewer Conditions

Pressure 29.88 in
Visibility 10.0 miles
Clouds Clear
Dew Point 67 °F
Humidity 87%
Rainfall 0.00 in
Snow Depth Not available.
UV 3.1 out of 12
Pollen 9.80 out of 12
Air Quality Not available.
Flu Activity Not available.
METAR KSTC 201453Z VRB04KT 10SM CLR 22/18 A2986 RMK AO2 SLP116 T02220178 58002

More Conditions Fewer Conditions

10-Day Weather Forecast

Almanac

Astronomy

Aug. 20, 2014 Rise Set
Actual Time 6:24 AM CDT 8:17 PM CDT
Civil Twilight 5:52 AM CDT 8:48 PM CDT
Nautical Twilight 5:13 AM CDT 9:27 PM CDT
Astronomical Twilight 4:30 AM CDT 10:10 PM CDT
Moon 1:59 AM CDT 5:07 PM CDT
Length of Visible Light 14h 56m
Length of Day
13h 52m
Tomorrow will be 2m 57s shorter.
Waning Crescent, 21% of the Moon is Illuminated
Today
Waning Crescent
Aug 25
New
Sep 2
First Quarter
Sep 8
Full
Sep 15
Last Quarter

Today's Extremes

State Highs State Lows

Community

WunderPhotos

Upload Photos

1,745,661 photos uploaded!

Nearby

Snow Depth

Station Depth Elevation
No new snow has been reported.

Earthquake Activity

City Distance Mag. Time & Date
No recent earthquake activity has been reported nearby.
Minimum magnitude displayed is 2.5.

Coastal Water Temperatures

Place Temperature
No Stations Reporting

Nearby Weather Stations